createdAt,value
2024-04-24T00:00:43.253Z,1.07
2024-04-24T00:02:46.439Z,1.42
2024-04-24T00:04:49.591Z,2.40
2024-04-24T00:06:53.074Z,1.54
2024-04-24T00:08:56.518Z,1.27
2024-04-24T00:10:59.712Z,1.42
2024-04-24T00:13:02.953Z,1.26
2024-04-24T00:15:06.700Z,0.98
2024-04-24T00:17:13.653Z,0.99
2024-04-24T00:19:17.357Z,0.99
2024-04-24T00:21:20.512Z,1.01
2024-04-24T00:23:24.228Z,1.12
2024-04-24T00:25:27.421Z,1.00
2024-04-24T00:27:30.699Z,1.06
2024-04-24T00:29:33.806Z,1.23
2024-04-24T00:31:36.933Z,1.34
2024-04-24T00:33:40.202Z,1.04
2024-04-24T00:35:43.510Z,1.22
2024-04-24T00:37:46.681Z,1.18
2024-04-24T00:39:49.788Z,1.10
2024-04-24T00:41:52.964Z,1.00
2024-04-24T00:43:56.131Z,1.12
2024-04-24T00:46:01.091Z,0.96
2024-04-24T00:48:06.576Z,1.14
2024-04-24T00:50:15.726Z,1.10
2024-04-24T00:52:19.964Z,1.03
2024-04-24T00:54:23.127Z,1.06
2024-04-24T00:56:26.521Z,1.13
2024-04-24T00:58:30.027Z,1.11
2024-04-24T01:00:33.392Z,1.20
2024-04-24T01:02:36.919Z,1.08
2024-04-24T01:04:40.051Z,1.07
2024-04-24T01:06:43.177Z,1.03
2024-04-24T01:08:46.286Z,0.99
2024-04-24T01:10:59.676Z,1.02
2024-04-24T01:13:02.948Z,1.06
2024-04-24T01:15:07.240Z,1.01
2024-04-24T01:17:15.583Z,1.15
2024-04-24T01:19:45.290Z,1.11
2024-04-24T01:22:14.864Z,0.94
2024-04-24T01:24:25.053Z,1.27
2024-04-24T01:26:50.066Z,0.91
2024-04-24T01:28:53.716Z,0.93
2024-04-24T01:30:56.812Z,1.08
2024-04-24T01:33:00.171Z,1.09
2024-04-24T01:35:03.535Z,1.02
2024-04-24T01:37:06.654Z,1.20
2024-04-24T01:39:09.769Z,1.06
2024-04-24T01:41:12.928Z,1.20
2024-04-24T01:43:16.102Z,1.20
2024-04-24T01:45:19.207Z,1.17
2024-04-24T01:47:22.437Z,1.04
2024-04-24T01:49:25.562Z,1.10
2024-04-24T01:51:28.656Z,1.25
2024-04-24T01:53:31.790Z,1.17
2024-04-24T01:55:34.974Z,1.27
2024-04-24T01:57:38.226Z,1.19
2024-04-24T01:59:41.387Z,1.29
2024-04-24T02:01:44.529Z,1.27
2024-04-24T02:03:47.732Z,1.17
2024-04-24T02:05:50.862Z,1.24
2024-04-24T02:07:54.173Z,1.47
2024-04-24T02:09:57.278Z,1.25
2024-04-24T02:12:09.714Z,1.24
2024-04-24T02:14:17.861Z,1.29
2024-04-24T02:16:21.018Z,1.22
2024-04-24T02:18:24.255Z,1.16
2024-04-24T02:20:27.453Z,1.24
2024-04-24T02:22:30.584Z,1.25
2024-04-24T02:24:53.055Z,1.29
2024-04-24T02:26:56.192Z,1.26
2024-04-24T02:28:59.380Z,1.40
2024-04-24T02:31:02.581Z,1.39
2024-04-24T02:33:06.288Z,1.10
2024-04-24T02:35:09.510Z,1.25
2024-04-24T02:37:12.648Z,1.07
2024-04-24T02:39:15.771Z,1.13
2024-04-24T02:41:18.997Z,1.20
2024-04-24T02:43:22.122Z,1.25
2024-04-24T02:45:25.270Z,1.25
2024-04-24T02:47:28.526Z,1.20
2024-04-24T02:49:31.692Z,1.24
2024-04-24T02:51:34.864Z,1.40
2024-04-24T02:53:38.041Z,1.11
2024-04-24T02:55:41.144Z,1.18
2024-04-24T02:57:44.290Z,1.29
2024-04-24T02:59:47.447Z,1.20
2024-04-24T03:01:50.757Z,1.33
2024-04-24T03:03:53.983Z,1.23
2024-04-24T03:05:57.094Z,1.21
2024-04-24T03:08:00.332Z,1.30
2024-04-24T03:10:03.474Z,1.30
2024-04-24T03:12:07.456Z,1.30
2024-04-24T03:14:10.640Z,1.34
2024-04-24T03:16:13.774Z,1.21
2024-04-24T03:18:16.969Z,1.21
2024-04-24T03:20:20.181Z,1.31
2024-04-24T03:22:23.359Z,1.14
2024-04-24T03:24:26.528Z,1.17
2024-04-24T03:26:29.628Z,1.70
2024-04-24T03:28:32.732Z,1.34
2024-04-24T03:30:35.868Z,1.40
2024-04-24T03:32:39.195Z,1.10
2024-04-24T03:34:42.539Z,1.16
2024-04-24T03:36:45.888Z,1.25
2024-04-24T03:38:49.038Z,1.25
2024-04-24T03:40:52.152Z,1.15
2024-04-24T03:42:55.375Z,0.99
2024-04-24T03:44:58.455Z,1.18
2024-04-24T03:47:01.664Z,1.31
2024-04-24T03:49:04.988Z,1.75
2024-04-24T03:51:08.297Z,1.48
2024-04-24T03:53:11.445Z,1.43
2024-04-24T03:55:14.606Z,1.55
2024-04-24T03:57:17.702Z,1.45
2024-04-24T03:59:20.813Z,1.31
2024-04-24T04:01:27.274Z,1.25
2024-04-24T04:03:30.373Z,1.26
2024-04-24T04:05:33.491Z,1.19
2024-04-24T04:07:36.654Z,1.17
2024-04-24T04:09:39.730Z,1.23
2024-04-24T04:11:42.954Z,1.26
2024-04-24T04:13:46.172Z,1.16
2024-04-24T04:15:49.292Z,1.27
2024-04-24T04:17:52.518Z,1.34
2024-04-24T04:19:55.692Z,1.47
2024-04-24T04:21:58.982Z,1.39
2024-04-24T04:24:02.127Z,1.57
2024-04-24T04:26:05.375Z,1.51
2024-04-24T04:28:08.559Z,1.76
2024-04-24T04:30:12.993Z,1.88
2024-04-24T04:32:16.275Z,1.70
2024-04-24T04:34:19.432Z,1.59
2024-04-24T04:36:22.597Z,1.32
2024-04-24T04:38:25.803Z,1.47
2024-04-24T04:40:29.249Z,1.42
2024-04-24T04:42:32.442Z,1.18
2024-04-24T04:44:35.621Z,1.34
2024-04-24T04:46:38.707Z,1.30
2024-04-24T04:48:41.842Z,1.29
2024-04-24T04:50:45.356Z,1.42
2024-04-24T04:52:48.570Z,1.23
2024-04-24T04:54:51.729Z,1.42
2024-04-24T04:56:54.865Z,1.33
2024-04-24T04:58:58.236Z,1.51
2024-04-24T05:01:01.619Z,1.52
2024-04-24T05:03:05.090Z,1.58
2024-04-24T05:05:08.423Z,1.41
2024-04-24T05:07:11.549Z,1.65
2024-04-24T05:09:14.656Z,1.38
2024-04-24T05:11:17.877Z,1.54
2024-04-24T05:13:21.449Z,1.59
2024-04-24T05:15:24.550Z,1.49
2024-04-24T05:17:27.837Z,1.60
2024-04-24T05:19:31.048Z,1.99
2024-04-24T05:21:34.146Z,1.66
2024-04-24T05:23:38.747Z,1.66
2024-04-24T05:25:42.086Z,1.78
2024-04-24T05:28:05.623Z,1.77
2024-04-24T05:30:09.074Z,1.75
2024-04-24T05:32:12.202Z,1.93
2024-04-24T05:34:15.330Z,1.88
2024-04-24T05:36:18.552Z,2.01
2024-04-24T05:38:21.735Z,2.00
2024-04-24T05:40:25.302Z,2.18
2024-04-24T05:42:28.398Z,2.30
2024-04-24T05:44:35.806Z,2.25
2024-04-24T05:46:39.062Z,2.30
2024-04-24T05:48:42.419Z,2.47
2024-04-24T05:50:45.587Z,2.43
2024-04-24T05:52:48.768Z,2.19
2024-04-24T05:54:51.988Z,2.08
2024-04-24T05:56:55.095Z,2.20
2024-04-24T05:58:58.290Z,2.12
2024-04-24T06:01:01.474Z,2.29
2024-04-24T06:03:04.607Z,2.24
2024-04-24T06:05:07.959Z,2.24
2024-04-24T06:07:11.249Z,2.39
2024-04-24T06:09:14.532Z,2.46
2024-04-24T06:11:17.715Z,2.48
2024-04-24T06:13:20.855Z,2.27
2024-04-24T06:15:24.332Z,2.54
2024-04-24T06:17:27.550Z,2.43
2024-04-24T06:19:30.723Z,2.36
2024-04-24T06:21:33.810Z,2.40
2024-04-24T06:23:37.047Z,2.56
2024-04-24T06:25:40.179Z,2.54
2024-04-24T06:27:43.303Z,2.65
2024-04-24T06:29:46.431Z,2.91
2024-04-24T06:31:49.751Z,2.41
2024-04-24T06:33:52.957Z,2.54
2024-04-24T06:35:56.048Z,2.96
2024-04-24T06:37:59.140Z,3.27
2024-04-24T06:40:02.327Z,2.76
2024-04-24T06:42:05.535Z,2.45
2024-04-24T06:44:08.679Z,2.22
2024-04-24T06:46:11.841Z,2.65
2024-04-24T06:48:15.087Z,2.98
2024-04-24T06:50:18.350Z,3.07
2024-04-24T06:52:21.467Z,2.74
2024-04-24T06:54:24.602Z,2.60
2024-04-24T06:56:27.846Z,2.39
2024-04-24T06:58:34.055Z,2.74
2024-04-24T07:00:37.505Z,2.79
2024-04-24T07:02:40.762Z,2.64
2024-04-24T07:04:43.929Z,3.02
2024-04-24T07:06:47.064Z,2.99
2024-04-24T07:08:50.175Z,2.68
2024-04-24T07:10:53.696Z,2.54
2024-04-24T07:12:57.100Z,2.65
2024-04-24T07:15:00.342Z,2.57
2024-04-24T07:17:03.513Z,2.52
2024-04-24T07:19:06.698Z,2.57
2024-04-24T07:21:09.889Z,2.64
2024-04-24T07:23:13.081Z,2.66
2024-04-24T07:25:16.198Z,2.66
2024-04-24T07:27:19.313Z,2.71
2024-04-24T07:29:22.457Z,2.58
2024-04-24T07:31:25.600Z,2.63
2024-04-24T07:33:28.873Z,2.84
2024-04-24T07:35:32.118Z,2.69
2024-04-24T07:37:35.371Z,2.65
2024-04-24T07:39:38.529Z,2.64
2024-04-24T07:41:43.526Z,2.50
2024-04-24T07:43:49.043Z,2.53
2024-04-24T07:45:52.143Z,2.45
2024-04-24T07:47:56.471Z,2.57
2024-04-24T07:49:59.767Z,2.59
2024-04-24T07:52:02.985Z,2.44
2024-04-24T07:54:06.152Z,2.51
2024-04-24T07:56:09.273Z,2.66
2024-04-24T07:58:12.401Z,2.49
2024-04-24T08:00:15.989Z,2.85
2024-04-24T08:02:19.242Z,2.74
2024-04-24T08:04:22.485Z,3.04
2024-04-24T08:06:25.731Z,3.22
2024-04-24T08:08:29.032Z,2.83
2024-04-24T08:10:32.184Z,2.67
2024-04-24T08:12:35.301Z,2.63
2024-04-24T08:14:38.417Z,2.50
2024-04-24T08:16:41.642Z,2.34
2024-04-24T08:18:46.238Z,2.30
2024-04-24T08:20:49.338Z,2.29
2024-04-24T08:22:52.486Z,2.07
2024-04-24T08:24:55.729Z,2.25
2024-04-24T08:26:58.854Z,2.35
2024-04-24T08:29:02.190Z,2.23
2024-04-24T08:31:06.116Z,2.24
2024-04-24T08:33:09.327Z,2.11
2024-04-24T08:35:14.092Z,2.05
2024-04-24T08:37:17.343Z,2.05
2024-04-24T08:39:20.475Z,2.22
2024-04-24T08:41:23.619Z,2.43
2024-04-24T08:43:26.762Z,2.13
2024-04-24T08:45:30.749Z,2.10
2024-04-24T08:47:35.119Z,2.15
2024-04-24T08:49:45.789Z,2.07
2024-04-24T08:51:49.300Z,2.18
2024-04-24T08:54:04.850Z,2.07
2024-04-24T08:56:14.600Z,2.01
2024-04-24T08:58:25.901Z,1.99
2024-04-24T09:00:30.511Z,1.99
2024-04-24T09:02:39.869Z,1.81
2024-04-24T09:04:46.408Z,1.74
2024-04-24T09:06:49.535Z,1.99
2024-04-24T09:08:54.075Z,1.99
2024-04-24T09:10:57.231Z,1.76
2024-04-24T09:13:01.837Z,1.87
2024-04-24T09:15:05.248Z,2.09
2024-04-24T09:17:08.633Z,1.90
2024-04-24T09:19:11.960Z,2.07
2024-04-24T09:21:15.223Z,1.95
2024-04-24T09:23:24.444Z,1.95
2024-04-24T09:25:28.014Z,1.67
2024-04-24T09:27:32.336Z,1.60
2024-04-24T09:29:35.484Z,1.77
2024-04-24T09:31:40.568Z,3.92
2024-04-24T09:33:43.741Z,4.49
2024-04-24T09:35:46.846Z,1.51
2024-04-24T09:37:50.021Z,1.65
2024-04-24T09:39:53.225Z,1.70
2024-04-24T09:41:56.470Z,1.64
2024-04-24T09:43:59.783Z,1.56
2024-04-24T09:46:03.111Z,1.72
2024-04-24T09:48:07.096Z,1.74
2024-04-24T09:50:10.490Z,1.49
2024-04-24T09:52:17.317Z,1.55
2024-04-24T09:54:22.909Z,1.55
2024-04-24T09:56:30.202Z,1.60
2024-04-24T09:58:40.118Z,1.42
2024-04-24T10:00:43.749Z,1.62
2024-04-24T10:02:51.383Z,1.34
2024-04-24T10:05:05.273Z,1.46
2024-04-24T10:07:13.083Z,1.47
2024-04-24T10:09:24.598Z,1.12
2024-04-24T10:11:34.897Z,1.42
2024-04-24T10:13:41.000Z,1.38
2024-04-24T10:15:55.414Z,1.14
2024-04-24T10:17:59.450Z,0.98
2024-04-24T10:20:12.162Z,1.05
2024-04-24T10:22:25.248Z,1.12
2024-04-24T10:24:30.761Z,1.02
2024-04-24T10:26:35.158Z,1.14
2024-04-24T10:28:40.371Z,1.00
2024-04-24T10:30:44.433Z,1.10
2024-04-24T10:32:47.696Z,1.43
2024-04-24T10:34:52.996Z,1.52
2024-04-24T10:36:57.097Z,1.22
2024-04-24T10:39:00.240Z,1.00
2024-04-24T10:41:03.640Z,1.12
2024-04-24T10:43:09.011Z,1.23
2024-04-24T10:45:19.893Z,0.66
2024-04-24T10:47:23.140Z,0.32
2024-04-24T10:49:30.224Z,0.42
2024-04-24T10:51:36.087Z,0.27
2024-04-24T10:53:57.327Z,0.31
2024-04-24T10:56:01.984Z,0.21
2024-04-24T10:58:21.838Z,0.19
2024-04-24T11:00:30.671Z,0.34
2024-04-24T11:02:34.984Z,0.32
2024-04-24T11:04:39.427Z,0.21
2024-04-24T11:06:43.516Z,0.23
2024-04-24T11:08:52.267Z,0.24
2024-04-24T11:10:55.698Z,0.25
2024-04-24T11:12:59.429Z,0.24
2024-04-24T11:15:02.509Z,0.28
2024-04-24T11:17:05.666Z,0.29
2024-04-24T11:19:09.654Z,0.23
2024-04-24T11:21:26.146Z,0.16
2024-04-24T11:23:31.557Z,0.35
2024-04-24T11:25:42.415Z,0.30
2024-04-24T11:27:51.798Z,0.26
2024-04-24T11:29:55.096Z,0.25
2024-04-24T11:31:59.954Z,0.25
2024-04-24T11:34:05.528Z,0.23
2024-04-24T11:36:09.098Z,0.33
2024-04-24T11:38:13.290Z,0.29
2024-04-24T11:40:17.798Z,0.32
2024-04-24T11:42:21.002Z,0.33
2024-04-24T11:44:24.157Z,0.25
2024-04-24T11:46:28.937Z,0.26
2024-04-24T11:48:40.401Z,0.26
2024-04-24T11:50:55.841Z,0.38
2024-04-24T11:53:04.269Z,0.17
2024-04-24T11:55:08.094Z,0.42
2024-04-24T11:57:11.388Z,0.39
2024-04-24T11:59:17.787Z,0.34
2024-04-24T12:01:21.514Z,0.29
2024-04-24T12:03:24.963Z,0.37
2024-04-24T12:05:28.194Z,0.29
2024-04-24T12:07:31.365Z,0.24
2024-04-24T12:09:39.857Z,0.27
2024-04-24T12:11:45.615Z,0.30
2024-04-24T12:13:51.117Z,0.30
2024-04-24T12:16:04.593Z,0.42
2024-04-24T12:18:07.774Z,0.30
2024-04-24T12:20:11.165Z,0.28
2024-04-24T12:22:14.555Z,0.25
2024-04-24T12:24:17.684Z,0.24
2024-04-24T12:26:20.858Z,0.30
2024-04-24T12:28:25.265Z,0.35
2024-04-24T12:30:29.274Z,0.47
2024-04-24T12:32:32.494Z,0.35
2024-04-24T12:34:35.756Z,0.43
2024-04-24T12:36:39.576Z,0.31
2024-04-24T12:38:42.689Z,0.30
2024-04-24T12:40:45.877Z,0.29
2024-04-24T12:42:48.987Z,0.25
2024-04-24T12:44:52.064Z,0.25
2024-04-24T12:46:55.549Z,0.28
2024-04-24T12:48:58.880Z,0.94
2024-04-24T12:51:02.073Z,4.63
2024-04-24T12:53:05.409Z,1.44
2024-04-24T12:55:11.657Z,3.83
2024-04-24T12:57:14.806Z,2.04
2024-04-24T12:59:17.977Z,1.27
2024-04-24T13:01:22.684Z,0.80
2024-04-24T13:03:27.497Z,1.06
2024-04-24T13:05:30.771Z,0.64
2024-04-24T13:07:34.043Z,0.36
2024-04-24T13:09:38.867Z,0.38
2024-04-24T13:11:42.131Z,0.28
2024-04-24T13:13:45.380Z,0.53
2024-04-24T13:15:48.530Z,0.40
2024-04-24T13:17:51.809Z,0.64
2024-04-24T13:19:55.111Z,0.48
2024-04-24T13:21:58.248Z,0.47
2024-04-24T13:24:01.329Z,0.46
2024-04-24T13:26:04.478Z,0.74
2024-04-24T13:28:08.171Z,0.46
2024-04-24T13:30:12.065Z,0.39
2024-04-24T13:32:15.168Z,0.51
2024-04-24T13:34:18.320Z,0.41
2024-04-24T13:36:21.398Z,0.52
2024-04-24T13:38:24.685Z,0.81
2024-04-24T13:40:27.796Z,0.21
2024-04-24T13:42:30.898Z,0.30
2024-04-24T13:44:34.080Z,0.35
2024-04-24T13:46:38.599Z,0.30
2024-04-24T13:48:42.616Z,0.47
2024-04-24T13:50:45.814Z,0.84
2024-04-24T13:52:48.929Z,0.39
2024-04-24T13:54:52.039Z,1.22
2024-04-24T13:56:57.647Z,0.30
2024-04-24T13:59:00.840Z,0.20
2024-04-24T14:01:04.069Z,0.17
2024-04-24T14:03:07.591Z,0.23
2024-04-24T14:05:12.916Z,0.35
2024-04-24T14:07:16.081Z,0.23
2024-04-24T14:09:20.518Z,0.15
2024-04-24T14:11:23.654Z,0.21
2024-04-24T14:13:26.843Z,0.34
2024-04-24T14:15:29.948Z,0.75
2024-04-24T14:17:34.060Z,1.32
2024-04-24T14:19:37.387Z,0.45
2024-04-24T14:21:40.461Z,0.57
2024-04-24T14:23:43.575Z,0.80
2024-04-24T14:25:46.702Z,0.30
2024-04-24T14:27:53.023Z,0.25
2024-04-24T14:29:56.135Z,0.23
2024-04-24T14:31:59.443Z,0.25
2024-04-24T14:34:02.619Z,0.13
2024-04-24T14:36:05.714Z,0.20
2024-04-24T14:38:11.017Z,0.20
2024-04-24T14:40:14.183Z,0.28
2024-04-24T14:42:17.356Z,0.22
2024-04-24T14:44:20.527Z,0.20
2024-04-24T14:46:25.507Z,0.25
2024-04-24T14:48:28.701Z,0.25
2024-04-24T14:50:31.948Z,0.34
2024-04-24T14:52:35.113Z,0.23
2024-04-24T14:54:38.388Z,0.38
2024-04-24T14:56:41.495Z,0.26
2024-04-24T14:58:44.893Z,0.30
2024-04-24T15:00:48.001Z,0.34
2024-04-24T15:02:51.596Z,0.69
2024-04-24T15:04:54.755Z,0.80
2024-04-24T15:07:12.934Z,0.87
2024-04-24T15:09:16.041Z,0.46
2024-04-24T15:11:19.720Z,1.14
2024-04-24T15:13:23.000Z,1.07
2024-04-24T15:15:26.230Z,0.55
2024-04-24T15:17:29.643Z,0.68
2024-04-24T15:19:32.810Z,0.82
2024-04-24T15:21:40.563Z,0.28
2024-04-24T15:23:49.769Z,0.36
2024-04-24T15:25:52.922Z,0.28
2024-04-24T15:27:56.114Z,0.25
2024-04-24T15:29:59.196Z,0.57
2024-04-24T15:32:02.327Z,0.37
2024-04-24T15:34:05.557Z,0.29
2024-04-24T15:36:08.817Z,0.23
2024-04-24T15:38:12.174Z,0.31
2024-04-24T15:40:15.799Z,0.25
2024-04-24T15:42:19.021Z,0.18
2024-04-24T15:44:22.137Z,0.22
2024-04-24T15:46:25.235Z,0.26
2024-04-24T15:48:28.768Z,0.22
2024-04-24T15:50:32.055Z,0.18
2024-04-24T15:52:35.339Z,0.20
2024-04-24T15:54:38.441Z,0.24
2024-04-24T15:56:41.570Z,0.24
2024-04-24T15:58:44.689Z,0.27
2024-04-24T16:00:47.988Z,0.33
2024-04-24T16:02:53.669Z,0.24
2024-04-24T16:04:57.017Z,0.23
2024-04-24T16:07:00.270Z,0.22
2024-04-24T16:09:03.451Z,0.25
2024-04-24T16:11:06.730Z,0.24
2024-04-24T16:13:09.910Z,0.30
2024-04-24T16:15:13.074Z,0.25
2024-04-24T16:17:16.362Z,0.40
2024-04-24T16:19:19.618Z,0.72
2024-04-24T16:21:22.880Z,0.50
2024-04-24T16:23:26.106Z,0.23
2024-04-24T16:25:29.307Z,0.26
2024-04-24T16:27:32.457Z,0.44
2024-04-24T16:29:36.854Z,0.25
2024-04-24T16:31:39.989Z,0.30
2024-04-24T16:33:43.442Z,0.26
2024-04-24T16:35:46.591Z,0.36
2024-04-24T16:37:49.656Z,0.26
2024-04-24T16:39:52.795Z,0.23
2024-04-24T16:41:55.953Z,0.30
2024-04-24T16:43:59.945Z,0.41
2024-04-24T16:46:03.090Z,0.27
2024-04-24T16:48:08.150Z,0.30
2024-04-24T16:50:11.340Z,0.36
2024-04-24T16:52:14.940Z,0.51
2024-04-24T16:54:18.023Z,0.36
2024-04-24T16:56:22.019Z,0.34
2024-04-24T16:58:25.284Z,0.36
2024-04-24T17:00:29.885Z,0.86
2024-04-24T17:02:34.219Z,1.03
2024-04-24T17:04:37.627Z,0.78
2024-04-24T17:06:40.912Z,0.46
2024-04-24T17:08:44.089Z,0.31
2024-04-24T17:10:47.210Z,0.32
2024-04-24T17:12:50.647Z,0.32
2024-04-24T17:14:53.750Z,0.33
2024-04-24T17:16:56.819Z,0.39
2024-04-24T17:19:00.860Z,0.33
2024-04-24T17:21:04.324Z,0.46
2024-04-24T17:23:07.521Z,0.44
2024-04-24T17:25:10.790Z,0.53
2024-04-24T17:27:15.382Z,0.37
2024-04-24T17:29:18.568Z,0.29
2024-04-24T17:31:21.988Z,0.29
2024-04-24T17:33:25.478Z,0.32
2024-04-24T17:35:28.996Z,0.25
2024-04-24T17:37:34.979Z,0.32
2024-04-24T17:39:38.199Z,0.40
2024-04-24T17:41:41.540Z,0.33
2024-04-24T17:43:44.626Z,0.31
2024-04-24T17:45:48.160Z,0.42
2024-04-24T17:47:51.458Z,0.48
2024-04-24T17:49:55.529Z,0.43
2024-04-24T17:51:58.671Z,0.60
2024-04-24T17:54:01.757Z,0.74
2024-04-24T17:56:05.300Z,0.34
2024-04-24T17:58:08.584Z,0.39
2024-04-24T18:00:13.112Z,0.38
2024-04-24T18:02:16.192Z,1.43
2024-04-24T18:04:19.292Z,1.99
2024-04-24T18:06:22.471Z,1.21
2024-04-24T18:08:25.624Z,1.30
2024-04-24T18:10:30.662Z,1.01
2024-04-24T18:12:33.739Z,1.24
2024-04-24T18:14:36.852Z,0.77
2024-04-24T18:16:41.139Z,0.83
2024-04-24T18:18:44.329Z,0.59
2024-04-24T18:20:47.607Z,0.62
2024-04-24T18:22:50.748Z,0.67
2024-04-24T18:24:54.487Z,0.83
2024-04-24T18:26:57.600Z,0.82
2024-04-24T18:29:00.706Z,0.61
2024-04-24T18:31:03.888Z,0.39
2024-04-24T18:33:07.799Z,0.34
2024-04-24T18:35:11.098Z,0.44
2024-04-24T18:37:14.246Z,1.45
2024-04-24T18:39:17.339Z,1.41
2024-04-24T18:41:21.040Z,0.82
2024-04-24T18:43:24.223Z,0.73
2024-04-24T18:45:27.370Z,1.49
2024-04-24T18:47:30.638Z,2.36
2024-04-24T18:49:33.955Z,3.30
2024-04-24T18:51:37.879Z,2.20
2024-04-24T18:53:41.033Z,1.04
2024-04-24T18:55:44.212Z,0.48
2024-04-24T18:57:47.358Z,0.50
2024-04-24T18:59:50.477Z,0.93
2024-04-24T19:01:53.543Z,1.71
2024-04-24T19:03:56.774Z,1.26
2024-04-24T19:05:59.983Z,2.02
2024-04-24T19:08:03.122Z,1.90
2024-04-24T19:10:06.395Z,1.17
2024-04-24T19:12:09.915Z,0.94
2024-04-24T19:14:13.148Z,0.91
2024-04-24T19:16:17.804Z,0.99
2024-04-24T19:18:22.506Z,0.89
2024-04-24T19:20:25.642Z,0.75
2024-04-24T19:22:29.651Z,0.59
2024-04-24T19:24:32.731Z,0.58
2024-04-24T19:26:36.017Z,1.94
2024-04-24T19:28:42.288Z,1.62
2024-04-24T19:30:45.399Z,0.66
2024-04-24T19:32:48.639Z,0.56
2024-04-24T19:34:51.821Z,1.08
2024-04-24T19:36:55.723Z,0.72
2024-04-24T19:38:58.988Z,0.82
2024-04-24T19:41:02.227Z,0.84
2024-04-24T19:43:05.447Z,0.78
2024-04-24T19:45:08.797Z,1.20
2024-04-24T19:47:13.630Z,1.02
2024-04-24T19:49:16.788Z,0.90
2024-04-24T19:51:19.897Z,1.05
2024-04-24T19:53:23.027Z,1.05
2024-04-24T19:55:26.144Z,1.01
2024-04-24T19:57:29.382Z,0.82
2024-04-24T19:59:33.005Z,1.65
2024-04-24T20:01:36.925Z,0.92
2024-04-24T20:03:40.620Z,1.30
2024-04-24T20:05:43.863Z,0.87
2024-04-24T20:07:47.136Z,0.71
2024-04-24T20:09:51.047Z,0.58
2024-04-24T20:11:54.240Z,1.50
2024-04-24T20:13:59.669Z,1.75
2024-04-24T20:16:06.808Z,1.60
2024-04-24T20:18:10.069Z,1.42
2024-04-24T20:20:13.400Z,1.04
2024-04-24T20:22:16.661Z,0.90
2024-04-24T20:24:19.923Z,0.64
2024-04-24T20:26:23.057Z,0.47
2024-04-24T20:28:26.258Z,0.67
2024-04-24T20:30:29.431Z,0.85
2024-04-24T20:32:33.293Z,0.71
2024-04-24T20:34:36.605Z,2.27
2024-04-24T20:36:40.589Z,4.06
2024-04-24T20:38:44.452Z,3.26
2024-04-24T20:40:47.577Z,1.90
2024-04-24T20:42:54.050Z,3.19
2024-04-24T20:44:58.640Z,2.92
2024-04-24T20:47:01.855Z,1.52
2024-04-24T20:49:05.006Z,1.92
2024-04-24T20:51:11.807Z,1.93
2024-04-24T20:53:15.339Z,0.93
2024-04-24T20:55:18.546Z,0.95
2024-04-24T20:57:21.667Z,0.64
2024-04-24T20:59:24.884Z,0.82
2024-04-24T21:01:28.150Z,0.92
2024-04-24T21:03:31.518Z,0.64
2024-04-24T21:05:34.766Z,0.84
2024-04-24T21:07:38.258Z,2.04
2024-04-24T21:09:42.379Z,1.56
2024-04-24T21:11:45.603Z,1.36
2024-04-24T21:13:58.657Z,1.10
2024-04-24T21:16:02.016Z,2.83
2024-04-24T21:18:05.346Z,4.05
2024-04-24T21:20:11.296Z,2.30
2024-04-24T21:22:14.479Z,1.98
2024-04-24T21:24:17.760Z,2.64
2024-04-24T21:26:20.919Z,1.63
2024-04-24T21:28:24.020Z,0.63
2024-04-24T21:30:27.127Z,0.54
2024-04-24T21:32:31.465Z,0.48
2024-04-24T21:34:34.737Z,0.60
2024-04-24T21:36:38.790Z,0.85
2024-04-24T21:38:42.021Z,1.16
2024-04-24T21:40:45.195Z,1.01
2024-04-24T21:42:48.435Z,0.74
2024-04-24T21:44:51.599Z,0.88
2024-04-24T21:46:55.276Z,0.76
2024-04-24T21:48:58.659Z,0.69
2024-04-24T21:51:01.826Z,0.68
2024-04-24T21:53:06.459Z,0.63
2024-04-24T21:55:09.679Z,0.40
2024-04-24T21:57:12.803Z,0.56
2024-04-24T21:59:15.943Z,0.55
2024-04-24T22:01:21.293Z,0.46
2024-04-24T22:03:25.102Z,0.53
2024-04-24T22:05:28.223Z,0.51
2024-04-24T22:07:31.440Z,0.49
2024-04-24T22:09:34.566Z,0.55
2024-04-24T22:11:37.974Z,0.58
2024-04-24T22:13:41.192Z,0.59
2024-04-24T22:15:44.259Z,0.87
2024-04-24T22:17:47.621Z,0.75
2024-04-24T22:19:50.843Z,0.65
2024-04-24T22:21:53.987Z,0.56
2024-04-24T22:23:57.294Z,0.62
2024-04-24T22:26:01.246Z,0.63
2024-04-24T22:28:04.297Z,0.46
2024-04-24T22:30:08.720Z,0.49
2024-04-24T22:32:11.989Z,0.52
2024-04-24T22:34:15.187Z,0.55
2024-04-24T22:36:18.283Z,0.45
2024-04-24T22:38:21.411Z,0.47
2024-04-24T22:40:24.525Z,0.47
2024-04-24T22:42:27.691Z,0.58
2024-04-24T22:44:30.833Z,0.59
2024-04-24T22:46:33.945Z,0.58
2024-04-24T22:48:37.453Z,0.80
2024-04-24T22:50:40.909Z,0.63
2024-04-24T22:52:44.226Z,0.65
2024-04-24T22:54:47.322Z,0.61
2024-04-24T22:56:50.682Z,0.53
2024-04-24T22:58:53.766Z,0.63
2024-04-24T23:00:56.918Z,0.55
2024-04-24T23:03:00.218Z,0.63
2024-04-24T23:05:03.463Z,0.53
2024-04-24T23:07:06.799Z,0.57
2024-04-24T23:09:09.858Z,0.59
2024-04-24T23:11:14.430Z,0.53
2024-04-24T23:13:17.643Z,0.51
2024-04-24T23:15:20.815Z,0.50
2024-04-24T23:17:23.947Z,0.46
2024-04-24T23:19:27.219Z,0.52
2024-04-24T23:21:30.314Z,0.50
2024-04-24T23:23:33.506Z,0.65
2024-04-24T23:25:36.772Z,0.64
2024-04-24T23:27:39.938Z,0.65
2024-04-24T23:29:44.054Z,0.49
2024-04-24T23:31:47.228Z,0.52
2024-04-24T23:33:50.382Z,0.59
2024-04-24T23:35:53.504Z,0.50
2024-04-24T23:37:56.654Z,0.58
2024-04-24T23:39:59.787Z,0.73
2024-04-24T23:42:02.950Z,0.59
2024-04-24T23:44:06.705Z,0.52
2024-04-24T23:46:09.839Z,0.56
2024-04-24T23:48:13.091Z,0.59
2024-04-24T23:50:16.364Z,0.57
2024-04-24T23:52:19.549Z,0.51
2024-04-24T23:54:22.642Z,0.73
2024-04-24T23:56:25.906Z,0.56
2024-04-24T23:58:29.034Z,0.60
